x

Ne Burgeo Bank (44255) Wave Buoy

6:00pm - Sat 1st Aug 2015 All times are ADT. -3 hours from GMT.

  • Sig Wave height 3.0ft
  • Peak Period 5s
  • Wind
    7mph
  • Sea Temp 56°f
  • Sea Pressure 1006.5mb
  • Ne Burgeo Bank
  • Ne Burgeo Bank

More Historic Weather Station data

Upgrade to MSW Pro to gain access to the past 30 days of data for over 8000 Wavebouys and Weather Stations around the globe.

Join Pro

Comparision Forecast

View Surf forecast
   
Sat 08/01 6:00pm 3ft 5s 7
mph
1006.5mb 56f
5:00pm 3ft 5s 4 7 mph 1006.8mb 56f
4:00pm 3ft 5s 9
mph
1007.1mb 57f
3:00pm 2.5ft 5s 9
mph
1007.1mb 56f
2:00pm 3ft 5s 9 13 mph 1007.2mb 56f
1:00pm 3.5ft 5s 11 13 mph 1007mb 56f
12:00pm 3.5ft 5s 11 13 mph 1007.4mb 56f
11:00am 3.5ft 5s 9 11 mph 1007mb 56f
10:00am 3.5ft 5s 9 11 mph 1007mb 56f
9:00am 3.5ft 5s 11
mph
1007.1mb 56f
8:00am 4ft 5s 11 13 mph 1006.9mb 56f
7:00am 4ft 5s 9 13 mph 1006.7mb 56f
6:00am 4.5ft 5s 13 16 mph 1006.4mb 56f
5:00am 4.5ft 6s 11 13 mph 1006.5mb 56f
4:00am 4.5ft 5s 13 16 mph 1006.6mb 56f
3:00am 4.5ft 5s 13 16 mph 1006.5mb 56f
2:00am 4.5ft 5s 11 13 mph 1007.2mb 56f
1:00am 4.5ft 5s 11 13 mph 1007.6mb 56f
12:00am 4.5ft 5s 18 22 mph 1007.5mb 56f
Fri 07/31 11:00pm 4ft 4s 25 29 mph 1007.5mb 56f
10:00pm 3.5ft 4s 20 25 mph 1008.4mb 56f
9:00pm 3.5ft  -  20 22 mph 1008.9mb 56f
8:00pm 3ft 4s 20 25 mph 1009mb 56f
7:00pm 2.5ft  -  16 20 mph 1009.9mb 56f
6:00pm 2.5ft  -  16 18 mph 1010.6mb 56f
5:00pm 2.5ft 8s 16 18 mph 1010.6mb 56f
4:00pm 2.5ft  -  13 18 mph 1011.1mb 56f
3:00pm 2.5ft 9s 13 16 mph 1011.4mb 56f
2:00pm 2.5ft 10s 11 13 mph 1012.2mb 56f
1:00pm 2.5ft 8s 11 13 mph 1012.4mb 56f
12:00pm 3ft 8s 13 16 mph 1012.3mb 56f
11:00am 3ft 9s 13
mph
1012.7mb 56f
10:00am 3.5ft 8s 13
mph
1012.6mb 56f
9:00am 3.5ft 8s 9 13 mph 1012.5mb 56f
8:00am 3.5ft 9s 9 11 mph 1012mb 56f
7:00am 3ft 8s 7
mph
1012.1mb 56f
6:00am 3ft 9s 2 4 mph 1011.8mb 56f
5:00am 3ft 9s 7 9 mph 1011.8mb 56f
4:00am 3ft 10s 7 9 mph 1011.4mb 56f
3:00am 3ft 10s 4 7 mph 1011.4mb 56f
2:00am 2.5ft 10s 9 11 mph 1010.9mb 56f
1:00am 2.5ft 10s 11 13 mph 1010.5mb 56f
12:00am 3ft 10s 9
mph
1010.3mb 56f
Thu 07/30 11:00pm 3ft 10s 9
mph
1010.4mb 56f
10:00pm 3.5ft 11s 2 4 mph 1009.9mb 56f
9:00pm 3ft 10s 2 4 mph 1009.3mb 56f
8:00pm 3.5ft 10s 7 9 mph 1008.5mb 56f
7:00pm 3.5ft 11s 7 9 mph 1008mb 56f
6:00pm 3.5ft 11s 9 11 mph 1007.6mb 56f
5:00pm 4ft 11s 11 13 mph 1007.7mb 56f
4:00pm 4.5ft 11s 9 11 mph 1007.8mb 56f
3:00pm 5ft 11s 11 13 mph 1007.9mb 56f
2:00pm 5ft 10s 7 9 mph 1008.1mb 56f
1:00pm 5.5ft 11s 11 13 mph 1008mb 56f
12:00pm 5.5ft 11s 16 18 mph 1008.2mb 55f
11:00am 4.5ft 11s 13 18 mph 1008.2mb 55f
10:00am 3.5ft 10s 13 16 mph 1008.1mb 55f
9:00am 3.5ft 11s 16 20 mph 1008.5mb 55f
8:00am 3.5ft 6s 13 16 mph 1008.9mb 55f
7:00am 3.5ft 8s 13 16 mph 1008.6mb 55f
6:00am 3.5ft 8s 16 18 mph 1009mb 55f
5:00am 3.5ft 6s 13 16 mph 1009.4mb 55f
4:00am 3.5ft 6s 11 16 mph 1010mb 55f
3:00am 4ft 6s 11 13 mph 1010.9mb 55f
2:00am 4.5ft 6s 7 9 mph 1011.1mb 55f
1:00am 4ft 6s 9 11 mph 1012.3mb 55f
12:00am 4.5ft 5s 11 13 mph 1013.1mb 55f
Wed 07/29 11:00pm 4.5ft 6s 16 18 mph 1013.7mb 55f
10:00pm 4.5ft 6s 16 18 mph 1014.7mb 55f
9:00pm 4.5ft 5s 13 16 mph 1015mb 55f
8:00pm 5ft 6s 18 22 mph 1015mb 55f
7:00pm 5ft 6s 18 20 mph 1015.4mb 55f
6:00pm 5ft 6s 16 22 mph 1015.8mb 55f
5:00pm 5.5ft 6s 22 27 mph 1015.8mb 55f
4:00pm 5ft 6s 20 25 mph 1016.1mb 55f
3:00pm 5.5ft 6s 20 25 mph 1016.1mb 55f
2:00pm 5.5ft 7s 18 22 mph 1016.1mb 55f
12:00pm 5.5ft 7s 20 25 mph 1016.5mb 55f
11:00am 6ft 6s 20 25 mph 1016.8mb 55f
10:00am 6ft 6s 20 25 mph 1016.5mb 55f
9:00am 5.5ft 6s 20 25 mph 1016.7mb 55f
8:00am 5.5ft 6s 20 22 mph 1016.8mb 55f
7:00am 6ft 6s 20 22 mph 1016.7mb 55f
6:00am 5.5ft 7s 20 25 mph 1016.6mb 55f
5:00am 6ft 6s 20 25 mph 1016.6mb 55f
4:00am 6ft 6s 20 25 mph 1017mb 55f
3:00am 6.5ft 7s 20 22 mph 1017.1mb 55f
2:00am 7ft 6s 22 25 mph 1017.2mb 55f
1:00am 6.5ft 6s 22 27 mph 1017.7mb 55f
12:00am 6.5ft 7s 20 25 mph 1018.2mb 55f
Tue 07/28 11:00pm 7ft 7s 22 27 mph 1018.3mb 55f